Nearby METAR Reports

(scroll for additional cities)

 

KPSP - Palm Springs, California, USA
Distance from station: WNW 7mi, 11km
Updated: Tue, 16-Aug-2022 7:53pm PDT
Clear
Clear
 Wind from NNW
Wind: NNW 13 mph , 20 km/h, Gust: 23 mph , 37 km/h
Temperature: 102°F , 39°C
Dew Point: 61°F , 16°C
Humidity: 26%
Barometer: 29.72 inHg , 1006.4 hPa
Clouds: Clear
Visibility: 10 miles , 16 km
2022/08/17 02:53 KPSP 170253Z 33011G20KT 10SM CLR 39/16 A2972 RMK AO2 SLP057 T03890156 53008
KTRM - Thermal/Palm Spg, California, USA
Distance from station: SE 16mi, 26km
Updated: Tue, 16-Aug-2022 7:52pm PDT
Clear
Clear
 Wind from SE
Wind: SE 3 mph , 6 km/h
Temperature: 97°F , 36°C
Heat Index: 104°F , 40°C
Dew Point: 70°F , 21°C
Humidity: 42%
Barometer: 29.65 inHg , 1004.1 hPa
Clouds: Clear
Visibility: 10 miles , 16 km
2022/08/17 02:52 KTRM 170252Z AUTO 13003KT 10SM CLR 36/21 A2965 RMK AO2 SLP044 T03560206 53009
 
KNXP - Twentynine Palms, California, USA
Distance from station: NNE 37mi, 60km
Updated: Tue, 16-Aug-2022 7:56pm PDT
Clear
Clear
 Wind from calm
Wind: Calm
Temperature: 88°F , 31°C
Heat Index: 90°F , 32°C
Dew Point: 64°F , 18°C
Humidity: 46%
Barometer: 29.91 inHg , 1012.9 hPa
Clouds: Clear
Visibility: 10 miles , 16 km
2022/08/17 02:56 KNXP 170256Z AUTO 00000KT 10SM CLR 31/18 A2991 RMK AO2 SLP087 T03060178 53002
KL35 - Big Bear City, California, USA
Distance from station: NW 43mi, 69km
Updated: Tue, 16-Aug-2022 8:35pm PDT
Clear
Clear
 Wind from calm
Wind: Calm
Temperature: 61°F , 16°C
Dew Point: 54°F , 12°C
Humidity: 77%
Barometer: 30.25 inHg , 1024.4 hPa
Clouds: Clear
Visibility: 10 miles , 16 km
2022/08/17 03:35 KL35 170335Z AUTO 00000KT 10SM CLR 16/12 A3025 RMK AO2
 
KF70 - Murrieta/Temecula, California, USA
Distance from station: WSW 45mi, 73km
Updated: Tue, 16-Aug-2022 8:35pm PDT
Clear
Clear
 Wind from SE
Wind: SE 5 mph , 7 km/h
Temperature: 77°F , 25°C
Dew Point: 54°F , 12°C
Humidity: 44%
Barometer: 29.86 inHg , 1011.2 hPa
Clouds: Clear
Visibility: 10 miles , 16 km
2022/08/17 03:35 KF70 170335Z AUTO 14004KT 10SM CLR 25/12 A2986 RMK AO2
KRIV - Riverside/March, California, USA
Distance from station: W 51mi, 82km
Updated: Tue, 16-Aug-2022 7:58pm PDT
Clear
Clear
 Wind from calm
Wind: Calm
Temperature: 88°F , 31°C
Dew Point: 37°F , 3°C
Humidity: 17%
Barometer: 29.85 inHg , 1010.8 hPa
Clouds: Clear
Visibility: 10 miles , 16 km
2022/08/17 02:58 KRIV 170258Z AUTO 00000KT 10SM CLR 31/03 A2985 RMK AO2 SLP092 T03130025 53016
 
KSBD - San Bernardino, California, USA
Distance from station: WNW 54mi, 86km
Updated: Tue, 16-Aug-2022 7:54pm PDT
Partly Cloudy
Partly Cloudy
 Wind from WSW
Wind: WSW 9 mph , 15 km/h
Temperature: 90°F , 32°C
Dew Point: 50°F , 10°C
Humidity: 26%
Barometer: 29.81 inHg , 1009.5 hPa
Clouds: Partly Cloudy
Visibility: 7 miles , 11 km
Cloud details: Partly Cloudy 12000 ft
2022/08/17 02:54 KSBD 170254Z 25008KT 7SM SCT120 32/10 A2981
KRNM - Ramona, California, USA
Distance from station: SSW 60mi, 96km
Updated: Tue, 16-Aug-2022 7:53pm PDT
Clear
Clear
 Wind from WNW
Wind: WNW 6 mph , 9 km/h
Temperature: 77°F , 25°C
Dew Point: 59°F , 15°C
Humidity: 54%
Barometer: 29.86 inHg , 1011.2 hPa
Clouds: Clear
Visibility: 10 miles , 16 km
2022/08/17 02:53 KRNM 170253Z 29005KT 10SM CLR 25/15 A2986 RMK AO2 SLP095 T02500150 53012
 
KRAL - Riverside, California, USA
Distance from station: W 62mi, 100km
Updated: Tue, 16-Aug-2022 7:53pm PDT
Clear
Clear
 Wind from W
Wind: W 9 mph , 15 km/h
Temperature: 86°F , 30°C
Dew Point: 55°F , 13°C
Humidity: 35%
Barometer: 29.80 inHg , 1009.1 hPa
Clouds: Clear
Visibility: 10 miles , 16 km
2022/08/17 02:53 KRAL 170253Z 27008KT 10SM CLR 30/13 A2980 RMK AO2 SLP074 T03000128 53016
KOKB - Oceanside, California, USA
Distance from station: SW 68mi, 109km
Updated: Tue, 16-Aug-2022 8:23pm PDT
Mostly Cloudy
Mostly Cloudy
 Wind from calm
Wind: Calm
Temperature: 72°F , 22°C
Dew Point: 66°F , 19°C
Humidity: 83%
Barometer: 29.82 inHg , 1009.8 hPa
Clouds: Mostly Cloudy
Visibility: 9 miles , 14 km
Cloud details: Mostly Cloudy 1200 ft
2022/08/17 03:23 KOKB 170323Z AUTO 00000KT 9SM BKN012 22/19 A2982 RMK AO2 T02220194
 
KONT - Ontario, California, USA
Distance from station: WNW 71mi, 114km
Updated: Tue, 16-Aug-2022 7:53pm PDT
Few Clouds
Few Clouds
 Wind from WSW
Wind: WSW 12 mph , 19 km/h
Temperature: 84°F , 29°C
Heat Index: 84°F , 29°C
Dew Point: 61°F , 16°C
Humidity: 45%
Barometer: 29.80 inHg , 1009.1 hPa
Clouds: Few Clouds
Visibility: 10 miles , 16 km
Cloud details: Few Clouds 16000 ft
Few Clouds 25000 ft
2022/08/17 02:53 KONT 170253Z 24010KT 10SM FEW160 FEW250 29/16 A2980 RMK AO2 SLP073 T02940156 53012
KNJK - El Centro Naf, California, USA
Distance from station: SSE 78mi, 126km
Updated: Tue, 16-Aug-2022 7:56pm PDT
Clear
Clear
 Wind from SSE
Wind: SSE 8 mph , 13 km/h
Temperature: 102°F , 39°C
Dew Point: 64°F , 18°C
Humidity: 29%
Barometer: 29.66 inHg , 1004.4 hPa
Clouds: Clear
Visibility: 10 miles , 16 km
2022/08/17 02:56 KNJK 170256Z 15007KT 10SM CLR 39/18 A2966 RMK AO2 SLP060 T03890178 53010
 
KSEE - San Diego/Santee, California, USA
Distance from station: SSW 74mi, 120km
Updated: Tue, 16-Aug-2022 7:47pm PDT
Clear
Clear
 Wind from calm
Wind: Calm
Temperature: 79°F , 26°C
Dew Point: 64°F , 18°C
Humidity: 61%
Barometer: 29.83 inHg , 1010.2 hPa
Clouds: Clear
Visibility: 10 miles , 16 km
2022/08/17 02:47 KSEE 170247Z 00000KT 10SM SKC 26/18 A2983
KCNO - Chino, California, USA
Distance from station: W 72mi, 116km
Updated: Tue, 16-Aug-2022 7:53pm PDT
Clear
Clear
 Wind from W
Wind: W 16 mph , 26 km/h
Temperature: 82°F , 28°C
Heat Index: 82°F , 28°C
Dew Point: 57°F , 14°C
Humidity: 42%
Barometer: 29.80 inHg , 1009.1 hPa
Clouds: Clear
Visibility: 10 miles , 16 km
2022/08/17 02:53 KCNO 170253Z 28014KT 10SM CLR 28/14 A2980 RMK AO2 SLP085 T02830144 53012

Metar display script from Saratoga-Weather.org